Observation data for Andrews on 08/15/2019      Previous  Date       Current Mesonet Observations  Soil Data  Daily Summary Page  Observations in Plain Language
KANS 150500Z 00000KT 25/16 A3016 RMK A01 T02510155  RH  056%=      5-min Rain = 0
KANS 150505Z 12001KT 25/16 A3016 RMK A01 T02510155  RH  057%=      5-min Rain = 0
KANS 150510Z 11001KT 25/15 A3016 RMK A01 T02510154  RH  056%=      5-min Rain = 0
KANS 150515Z 12000KT 25/15 A3016 RMK A01 T02510154  RH  056%=      5-min Rain = 0
KANS 150520Z 00000KT 25/15 A3016 RMK A01 T02490153  RH  056%=      5-min Rain = 0
KANS 150525Z 05001KT 25/15 A3016 RMK A01 T02480152  RH  056%=      5-min Rain = 0
KANS 150530Z 04002KT 25/15 A3016 RMK A01 T02470154  RH  057%=      5-min Rain = 0
KANS 150535Z 04002KT 25/15 A3016 RMK A01 T02480153  RH  057%=      5-min Rain = 0
KANS 150540Z 05003KT 25/15 A3016 RMK A01 T02480152  RH  056%=      5-min Rain = 0
KANS 150545Z 06003KT 25/15 A3016 RMK A01 T02470151  RH  056%=      5-min Rain = 0
KANS 150550Z 07001KT 25/15 A3016 RMK A01 T02460150  RH  056%=      5-min Rain = 0
KANS 150555Z 06002KT 25/15 A3016 RMK A01 T02460150  RH  056%=      5-min Rain = 0
KANS 150600Z 06001KT 25/15 A3016 RMK A01 T02450150  RH  057%=      5-min Rain = 0
KANS 150605Z 00000KT 24/15 A3016 RMK A01 T02440150  RH  057%=      5-min Rain = 0
KANS 150610Z 04001KT 24/15 A3016 RMK A01 T02430150  RH  057%=      5-min Rain = 0
KANS 150615Z 04001KT 24/15 A3016 RMK A01 T02410149  RH  058%=      5-min Rain = 0
KANS 150620Z 04001KT 24/15 A3016 RMK A01 T02410148  RH  057%=      5-min Rain = 0
KANS 150625Z 07001KT 24/15 A3016 RMK A01 T02410148  RH  057%=      5-min Rain = 0
KANS 150630Z 07000KT 24/15 A3016 RMK A01 T02410148  RH  057%=      5-min Rain = 0
KANS 150635Z 04001KT 24/15 A3016 RMK A01 T02410148  RH  057%=      5-min Rain = 0
KANS 150640Z 03002KT 24/15 A3016 RMK A01 T02410149  RH  058%=      5-min Rain = 0
KANS 150645Z 03002KT 24/15 A3016 RMK A01 T02430149  RH  057%=      5-min Rain = 0
KANS 150650Z 03002KT 24/15 A3016 RMK A01 T02430150  RH  057%=      5-min Rain = 0
KANS 150655Z 04002KT 24/15 A3016 RMK A01 T02440150  RH  057%=      5-min Rain = 0
KANS 150700Z 01002KT 24/15 A3016 RMK A01 T02440150  RH  057%=      5-min Rain = 0
KANS 150705Z 03002KT 24/15 A3017 RMK A01 T02440150  RH  057%=      5-min Rain = 0
KANS 150710Z 02002KT 24/15 A3017 RMK A01 T02440151  RH  057%=      5-min Rain = 0
KANS 150715Z 00002KT 25/15 A3017 RMK A01 T02450151  RH  057%=      5-min Rain = 0
KANS 150720Z 35002KT 25/15 A3017 RMK A01 T02450151  RH  057%=      5-min Rain = 0
KANS 150725Z 00001KT 25/15 A3017 RMK A01 T02450150  RH  057%=      5-min Rain = 0
KANS 150730Z 33001KT 25/15 A3017 RMK A01 T02450151  RH  057%=      5-min Rain = 0
KANS 150735Z 32003KT 25/15 A3018 RMK A01 T02460152  RH  057%=      5-min Rain = 0
KANS 150740Z 31006KT 25/15 A3018 RMK A01 T02480153  RH  057%=      5-min Rain = 0
KANS 150745Z 30006KT 25/16 A3018 RMK A01 T02510156  RH  057%=      5-min Rain = 0
KANS 150750Z 30003KT 25/16 A3018 RMK A01 T02540156  RH  056%=      5-min Rain = 0
KANS 150755Z 03001KT 26/16 A3018 RMK A01 T02550156  RH  056%=      5-min Rain = 0
KANS 150800Z 04001KT 26/16 A3017 RMK A01 T02550155  RH  055%=      5-min Rain = 0
KANS 150805Z 32002KT 26/16 A3017 RMK A01 T02550156  RH  055%=      5-min Rain = 0
KANS 150810Z 33003KT 25/16 A3017 RMK A01 T02540156  RH  056%=      5-min Rain = 0
KANS 150815Z 35003KT 25/16 A3017 RMK A01 T02540155  RH  055%=      5-min Rain = 0
KANS 150820Z 35002KT 25/16 A3016 RMK A01 T02530155  RH  056%=      5-min Rain = 0
KANS 150825Z 00003KT 25/15 A3016 RMK A01 T02520154  RH  056%=      5-min Rain = 0
KANS 150830Z 01003KT 25/15 A3016 RMK A01 T02510154  RH  056%=      5-min Rain = 0
KANS 150835Z 00002KT 25/15 A3016 RMK A01 T02500154  RH  056%=      5-min Rain = 0
KANS 150840Z 36003KT 25/15 A3016 RMK A01 T02490154  RH  057%=      5-min Rain = 0
KANS 150845Z 36001KT 25/15 A3016 RMK A01 T02480153  RH  057%=      5-min Rain = 0
KANS 150850Z 02001KT 25/15 A3015 RMK A01 T02470153  RH  057%=      5-min Rain = 0
KANS 150855Z 03000KT 25/15 A3015 RMK A01 T02460153  RH  057%=      5-min Rain = 0
KANS 150900Z 07000KT 25/15 A3015 RMK A01 T02460153  RH  057%=      5-min Rain = 0
KANS 150905Z 22000KT 24/15 A3015 RMK A01 T02440154  RH  059%=      5-min Rain = 0
KANS 150910Z 26001KT 24/16 A3015 RMK A01 T02390155  RH  061%=      5-min Rain = 0
KANS 150915Z 31001KT 24/16 A3015 RMK A01 T02370156  RH  062%=      5-min Rain = 0
KANS 150920Z 35001KT 24/16 A3015 RMK A01 T02360155  RH  062%=      5-min Rain = 0
KANS 150925Z 30002KT 24/16 A3015 RMK A01 T02360155  RH  061%=      5-min Rain = 0
KANS 150930Z 28002KT 24/16 A3015 RMK A01 T02360155  RH  062%=      5-min Rain = 0
KANS 150935Z 28001KT 24/16 A3015 RMK A01 T02360156  RH  062%=      5-min Rain = 0
KANS 150940Z 27001KT 24/16 A3015 RMK A01 T02360155  RH  062%=      5-min Rain = 0
KANS 150945Z 27000KT 24/16 A3014 RMK A01 T02350155  RH  062%=      5-min Rain = 0
KANS 150950Z 35001KT 24/16 A3014 RMK A01 T02350156  RH  062%=      5-min Rain = 0
KANS 150955Z 02002KT 24/16 A3014 RMK A01 T02350155  RH  062%=      5-min Rain = 0
KANS 151000Z 04002KT 24/16 A3014 RMK A01 T02360156  RH  062%=      5-min Rain = 0
KANS 151005Z 03000KT 24/16 A3014 RMK A01 T02370155  RH  062%=      5-min Rain = 0
KANS 151010Z 00000KT 24/16 A3014 RMK A01 T02350155  RH  062%=      5-min Rain = 0
KANS 151015Z 00000KT 23/16 A3013 RMK A01 T02320156  RH  064%=      5-min Rain = 0
KANS 151020Z 03000KT 23/16 A3014 RMK A01 T02310157  RH  065%=      5-min Rain = 0
KANS 151025Z 01002KT 23/16 A3014 RMK A01 T02310155  RH  064%=      5-min Rain = 0
KANS 151030Z 03002KT 23/15 A3014 RMK A01 T02310154  RH  063%=      5-min Rain = 0
KANS 151035Z 03001KT 23/16 A3014 RMK A01 T02310155  RH  064%=      5-min Rain = 0
KANS 151040Z 31001KT 23/16 A3014 RMK A01 T02310155  RH  064%=      5-min Rain = 0
KANS 151045Z 28004KT 23/15 A3013 RMK A01 T02280154  RH  065%=      5-min Rain = 0
KANS 151050Z 25003KT 23/16 A3013 RMK A01 T02270155  RH  066%=      5-min Rain = 0
KANS 151055Z 26006KT 23/16 A3013 RMK A01 T02250157  RH  067%=      5-min Rain = 0
KANS 151100Z 25005KT 23/16 A3013 RMK A01 T02260159  RH  068%=      5-min Rain = 0
KANS 151105Z 23003KT 23/16 A3013 RMK A01 T02270159  RH  067%=      5-min Rain = 0
KANS 151110Z 24004KT 23/16 A3013 RMK A01 T02260160  RH  068%=      5-min Rain = 0
KANS 151115Z 26003KT 23/16 A3013 RMK A01 T02250160  RH  068%=      5-min Rain = 0
KANS 151120Z 27003KT 23/16 A3013 RMK A01 T02250160  RH  068%=      5-min Rain = 0
KANS 151125Z 27003KT 23/16 A3013 RMK A01 T02250159  RH  068%=      5-min Rain = 0
KANS 151130Z 29003KT 23/16 A3014 RMK A01 T02250158  RH  067%=      5-min Rain = 0
KANS 151135Z 31004KT 22/16 A3014 RMK A01 T02240157  RH  067%=      5-min Rain = 0
KANS 151140Z 31005KT 23/16 A3014 RMK A01 T02250158  RH  067%=      5-min Rain = 0
KANS 151145Z 33003KT 23/16 A3014 RMK A01 T02270158  RH  066%=      5-min Rain = 0
KANS 151150Z 33003KT 23/16 A3014 RMK A01 T02270156  RH  065%=      5-min Rain = 0
KANS 151155Z 30004KT 22/16 A3014 RMK A01 T02240155  RH  066%=      5-min Rain = 0
KANS 151200Z 29002KT 22/15 A3014 RMK A01 T02240154  RH  066%=      5-min Rain = 0
KANS 151205Z 33001KT 22/15 A3014 RMK A01 T02240154  RH  066%=      5-min Rain = 0
KANS 151210Z 32003KT 22/15 A3014 RMK A01 T02230153  RH  066%=      5-min Rain = 0
KANS 151215Z 32003KT 22/15 A3015 RMK A01 T02220153  RH  066%=      5-min Rain = 0
KANS 151220Z 33004KT 22/15 A3015 RMK A01 T02220152  RH  066%=      5-min Rain = 0
KANS 151225Z 33005KT 22/15 A3015 RMK A01 T02210148  RH  065%=      5-min Rain = 0
KANS 151230Z 33003KT 22/15 A3015 RMK A01 T02220146  RH  063%=      5-min Rain = 0
KANS 151235Z 32003KT 22/15 A3015 RMK A01 T02230145  RH  063%=      5-min Rain = 0
KANS 151240Z 31005KT 22/14 A3015 RMK A01 T02240144  RH  062%=      5-min Rain = 0
KANS 151245Z 31003KT 23/14 A3015 RMK A01 T02270144  RH  061%=      5-min Rain = 0
KANS 151250Z 31004KT 23/14 A3015 RMK A01 T02300143  RH  059%=      5-min Rain = 0
KANS 151255Z 32004KT 23/14 A3015 RMK A01 T02340144  RH  058%=      5-min Rain = 0
KANS 151300Z 34003KT 24/14 A3015 RMK A01 T02370144  RH  057%=      5-min Rain = 0
KANS 151305Z 35002KT 24/14 A3015 RMK A01 T02390144  RH  056%=      5-min Rain = 0
KANS 151310Z 34003KT 24/15 A3015 RMK A01 T02430145  RH  056%=      5-min Rain = 0
KANS 151315Z 33003KT 25/15 A3015 RMK A01 T02460146  RH  055%=      5-min Rain = 0
KANS 151320Z 34002KT 25/15 A3016 RMK A01 T02500148  RH  054%=      5-min Rain = 0
KANS 151325Z 35003KT 26/15 A3016 RMK A01 T02550149  RH  053%=      5-min Rain = 0
KANS 151330Z 00005KT 26/15 A3016 RMK A01 T02590151  RH  053%=      5-min Rain = 0
KANS 151335Z 00005KT 26/15 A3016 RMK A01 T02620152  RH  052%=      5-min Rain = 0
KANS 151340Z 36005KT 26/15 A3016 RMK A01 T02630152  RH  051%=      5-min Rain = 0
KANS 151345Z 02004KT 27/15 A3016 RMK A01 T02660152  RH  051%=      5-min Rain = 0
KANS 151350Z 03004KT 27/15 A3016 RMK A01 T02690153  RH  050%=      5-min Rain = 0
KANS 151355Z 04003KT 27/15 A3016 RMK A01 T02720153  RH  049%=      5-min Rain = 0
KANS 151400Z 04003KT 28/15 A3016 RMK A01 T02760154  RH  048%=      5-min Rain = 0
KANS 151405Z 04003KT 28/15 A3016 RMK A01 T02790154  RH  047%=      5-min Rain = 0
KANS 151410Z 03002KT 28/15 A3016 RMK A01 T02800154  RH  047%=      5-min Rain = 0
KANS 151415Z 04002KT 28/16 A3016 RMK A01 T02810155  RH  047%=      5-min Rain = 0
KANS 151420Z 00002KT 28/16 A3016 RMK A01 T02830155  RH  047%=      5-min Rain = 0
KANS 151425Z 34003KT 28/16 A3016 RMK A01 T02840155  RH  046%=      5-min Rain = 0
KANS 151430Z 35004KT 29/16 A3016 RMK A01 T02860155  RH  046%=      5-min Rain = 0
KANS 151435Z 00004KT 29/16 A3016 RMK A01 T02880155  RH  045%=      5-min Rain = 0
KANS 151440Z 03002KT 29/16 A3016 RMK A01 T02910155  RH  045%=      5-min Rain = 0
KANS 151445Z 07002KT 30/15 A3016 RMK A01 T02970153  RH  043%=      5-min Rain = 0
KANS 151450Z 05002KT 30/15 A3016 RMK A01 T03010154  RH  042%=      5-min Rain = 0
KANS 151455Z 03002KT 30/15 A3016 RMK A01 T03040153  RH  041%=      5-min Rain = 0
KANS 151500Z 07003KT 31/15 A3016 RMK A01 T03060153  RH  041%=      5-min Rain = 0
KANS 151505Z 07003KT 31/15 A3016 RMK A01 T03100153  RH  039%=      5-min Rain = 0
KANS 151510Z 11004KT 31/15 A3016 RMK A01 T03110152  RH  039%=      5-min Rain = 0
KANS 151515Z 09004KT 31/15 A3016 RMK A01 T03130152  RH  039%=      5-min Rain = 0
KANS 151520Z 05003KT 31/15 A3017 RMK A01 T03140151  RH  038%=      5-min Rain = 0
KANS 151525Z 09002KT 32/15 A3016 RMK A01 T03150151  RH  038%=      5-min Rain = 0
KANS 151530Z 16002KT 32/15 A3016 RMK A01 T03160148  RH  037%=      5-min Rain = 0
KANS 151535Z 10003KT 32/15 A3016 RMK A01 T03150151  RH  038%=      5-min Rain = 0
KANS 151540Z 13005KT 32/15 A3016 RMK A01 T03160152  RH  038%=      5-min Rain = 0
KANS 151545Z 14006KT 32/15 A3016 RMK A01 T03170151  RH  037%=      5-min Rain = 0
KANS 151550Z 17003KT 32/15 A3017 RMK A01 T03170150  RH  037%=      5-min Rain = 0
KANS 151555Z 13005KT 32/15 A3017 RMK A01 T03190150  RH  037%=      5-min Rain = 0
KANS 151600Z 11003G8KT 32/15 A3017 RMK A01 T03220147  RH  035%=      5-min Rain = 0
KANS 151605Z 12002KT 32/15 A3017 RMK A01 T03210149  RH  036%=      5-min Rain = 0
KANS 151610Z 10002KT 33/15 A3017 RMK A01 T03270147  RH  035%=      5-min Rain = 0
KANS 151615Z 20004KT 33/15 A3017 RMK A01 T03270147  RH  034%=      5-min Rain = 0
KANS 151620Z 16004KT 33/15 A3017 RMK A01 T03260147  RH  035%=      5-min Rain = 0
KANS 151625Z 29002KT 33/15 A3017 RMK A01 T03270145  RH  034%=      5-min Rain = 0
KANS 151630Z 10003KT 33/15 A3017 RMK A01 T03270145  RH  034%=      5-min Rain = 0
KANS 151635Z 18005KT 33/15 A3017 RMK A01 T03300147  RH  034%=      5-min Rain = 0
KANS 151640Z 21002G7KT 33/14 A3017 RMK A01 T03280143  RH  033%=      5-min Rain = 0
KANS 151645Z 16005KT 33/14 A3016 RMK A01 T03320144  RH  033%=      5-min Rain = 0
KANS 151650Z 13003KT 33/14 A3016 RMK A01 T03320143  RH  033%=      5-min Rain = 0
KANS 151655Z 18001KT 33/14 A3016 RMK A01 T03320143  RH  033%=      5-min Rain = 0
KANS 151700Z 21004KT 33/14 A3016 RMK A01 T03340140  RH  032%=      5-min Rain = 0
KANS 151705Z 23004KT 34/14 A3016 RMK A01 T03360143  RH  032%=      5-min Rain = 0
KANS 151710Z 23003KT 34/14 A3016 RMK A01 T03350144  RH  032%=      5-min Rain = 0
KANS 151715Z 21002KT 34/14 A3016 RMK A01 T03380144  RH  032%=      5-min Rain = 0
KANS 151720Z 17004KT 34/14 A3015 RMK A01 T03440141  RH  030%=      5-min Rain = 0
KANS 151725Z 14005KT 34/13 A3015 RMK A01 T03430132  RH  029%=      5-min Rain = 0
KANS 151730Z 14005KT 34/13 A3015 RMK A01 T03440127  RH  027%=      5-min Rain = 0
KANS 151735Z 21001KT 34/13 A3015 RMK A01 T03370134  RH  030%=      5-min Rain = 0
KANS 151740Z 14006G12KT 34/13 A3014 RMK A01 T03430133  RH  029%=      5-min Rain = 0
KANS 151745Z 15005G10KT 35/13 A3014 RMK A01 T03490127  RH  027%=      5-min Rain = 0
KANS 151750Z 23002KT 34/13 A3014 RMK A01 T03440126  RH  027%=      5-min Rain = 0
KANS 151755Z 22002KT 35/13 A3014 RMK A01 T03450129  RH  028%=      5-min Rain = 0
KANS 151800Z 16006KT 35/13 A3013 RMK A01 T03530127  RH  026%=      5-min Rain = 0
KANS 151805Z 15006KT 36/12 A3013 RMK A01 T03580120  RH  024%=      5-min Rain = 0
KANS 151810Z 17005G11KT 36/12 A3013 RMK A01 T03560120  RH  025%=      5-min Rain = 0
KANS 151815Z 14006KT 35/12 A3013 RMK A01 T03540115  RH  024%=      5-min Rain = 0
KANS 151820Z 14004G9KT 35/11 A3012 RMK A01 T03480114  RH  025%=      5-min Rain = 0
KANS 151825Z 08002KT 35/12 A3012 RMK A01 T03480115  RH  025%=      5-min Rain = 0
KANS 151830Z 16003KT 35/12 A3012 RMK A01 T03450118  RH  026%=      5-min Rain = 0
KANS 151835Z 21007KT 34/12 A3011 RMK A01 T03420121  RH  027%=      5-min Rain = 0
KANS 151840Z 18008KT 34/12 A3011 RMK A01 T03390121  RH  027%=      5-min Rain = 0
KANS 151845Z 17006G12KT 34/12 A3011 RMK A01 T03380118  RH  027%=      5-min Rain = 0
KANS 151850Z 20002KT 34/12 A3011 RMK A01 T03380118  RH  027%=      5-min Rain = 0
KANS 151855Z 12002KT 34/12 A301 RMK A01 T03380116  RH  026%=      5-min Rain = 0
KANS 151900Z 11004KT 34/12 A301 RMK A01 T03380117  RH  027%=      5-min Rain = 0
KANS 151905Z 15007G12KT 34/12 A301 RMK A01 T03400117  RH  026%=      5-min Rain = 0
KANS 151910Z 18005G10KT 34/12 A3009 RMK A01 T03390115  RH  026%=      5-min Rain = 0
KANS 151915Z 17004KT 34/12 A3009 RMK A01 T03420115  RH  026%=      5-min Rain = 0
KANS 151920Z 13003G9KT 35/11 A3008 RMK A01 T03450111  RH  025%=      5-min Rain = 0
KANS 151925Z 11006KT 34/11 A3008 RMK A01 T03430112  RH  025%=      5-min Rain = 0
KANS 151930Z 15005KT 34/11 A3008 RMK A01 T03410114  RH  026%=      5-min Rain = 0
KANS 151935Z 09005KT 34/11 A3009 RMK A01 T03370113  RH  026%=      5-min Rain = 0
KANS 151940Z 33011G23KT 33/12 A3011 RMK A01 T03270117  RH  028%=      5-min Rain = 0
KANS 151945Z 34029G42KT 28/13 A3009 RMK A01 T02780127  RH  040%=      5-min Rain = 0
KANS 151950Z 34035G49KT 24/16 A3009 RMK A01 T02390156  RH  062%=      5-min Rain = 0.04
KANS 151955Z 35027G37KT 21/17 A301 RMK A01 T02140169  RH  077%=      5-min Rain = 0.06
KANS 152000Z 00020G31KT 22/18 A3011 RMK A01 T02190176  RH  079%=      5-min Rain = 0.02
KANS 152005Z 36026G33KT 22/18 A3014 RMK A01 T02210178  RH  078%=      5-min Rain = 0.03
KANS 152010Z 36026G35KT 21/17 A3017 RMK A01 T02130172  RH  079%=      5-min Rain = 0.14
KANS 152015Z 01015G23KT 21/17 A3017 RMK A01 T02060172  RH  083%=      5-min Rain = 0.15
KANS 152020Z 36012G19KT 20/17 A3016 RMK A01 T02040166  RH  081%=      5-min Rain = 0.1
KANS 152025Z 02011KT 20/17 A3015 RMK A01 T02020167  RH  082%=      5-min Rain = 0.08
KANS 152030Z 08011KT 20/17 A3013 RMK A01 T02010167  RH  083%=      5-min Rain = 0.05
KANS 152035Z 11013KT 20/17 A3012 RMK A01 T02000168  RH  083%=      5-min Rain = 0.03
KANS 152040Z 13016KT 20/16 A301 RMK A01 T02020163  RH  080%=      5-min Rain = 0.01
KANS 152045Z 14013KT 20/16 A3011 RMK A01 T02000161  RH  080%=      5-min Rain = 0
KANS 152050Z 15012G18KT 20/16 A3013 RMK A01 T01980161  RH  081%=      5-min Rain = 0.01
KANS 152055Z 14015G22KT 20/16 A3013 RMK A01 T02000162  RH  080%=      5-min Rain = 0
KANS 152100Z 13015G20KT 20/16 A3012 RMK A01 T02040161  RH  078%=      5-min Rain = 0.01
KANS 152105Z 15014G19KT 20/16 A3011 RMK A01 T02020162  RH  079%=      5-min Rain = 0
KANS 152110Z 15012KT 20/16 A3012 RMK A01 T02020160  RH  079%=      5-min Rain = 0.01
KANS 152115Z 16013KT 21/16 A3011 RMK A01 T02070155  RH  074%=      5-min Rain = 0
KANS 152120Z 15013G19KT 22/15 A301 RMK A01 T02160149  RH  067%=      5-min Rain = 0
KANS 152125Z 14014G19KT 22/15 A301 RMK A01 T02240147  RH  063%=      5-min Rain = 0
KANS 152130Z 13012KT 23/15 A3009 RMK A01 T02280149  RH  062%=      5-min Rain = 0
KANS 152135Z 14011G16KT 24/14 A3008 RMK A01 T02380143  RH  057%=      5-min Rain = 0
KANS 152140Z 14010KT 25/15 A3008 RMK A01 T02490146  RH  054%=      5-min Rain = 0
KANS 152145Z 15012G17KT 25/15 A3008 RMK A01 T02510148  RH  054%=      5-min Rain = 0
KANS 152150Z 14011KT 25/15 A3008 RMK A01 T02480149  RH  055%=      5-min Rain = 0
KANS 152155Z 13009G14KT 26/14 A3007 RMK A01 T02600144  RH  050%=      5-min Rain = 0
KANS 152200Z 14010KT 27/14 A3006 RMK A01 T02710143  RH  046%=      5-min Rain = 0
KANS 152205Z 15010KT 27/15 A3006 RMK A01 T02720145  RH  047%=      5-min Rain = 0
KANS 152210Z 15010KT 27/14 A3005 RMK A01 T02740144  RH  046%=      5-min Rain = 0
KANS 152215Z 15008KT 27/15 A3005 RMK A01 T02740145  RH  046%=      5-min Rain = 0
KANS 152220Z 15007KT 28/15 A3004 RMK A01 T02770147  RH  046%=      5-min Rain = 0
KANS 152225Z 14006KT 28/15 A3004 RMK A01 T02840145  RH  044%=      5-min Rain = 0
KANS 152230Z 14004KT 29/15 A3004 RMK A01 T02890151  RH  044%=      5-min Rain = 0
KANS 152235Z 15007KT 29/14 A3004 RMK A01 T02940140  RH  040%=      5-min Rain = 0
KANS 152240Z 16006G11KT 30/14 A3004 RMK A01 T02970136  RH  038%=      5-min Rain = 0
KANS 152245Z 14004G9KT 30/14 A3004 RMK A01 T03020135  RH  037%=      5-min Rain = 0
KANS 152250Z 15005KT 31/13 A3003 RMK A01 T03060125  RH  034%=      5-min Rain = 0
KANS 152255Z 15005KT 31/12 A3003 RMK A01 T03100121  RH  032%=      5-min Rain = 0
KANS 152300Z 14006KT 32/11 A3003 RMK A01 T03190114  RH  029%=      5-min Rain = 0
KANS 152305Z 14006KT 32/11 A3003 RMK A01 T03230107  RH  027%=      5-min Rain = 0
KANS 152310Z 16005KT 33/11 A3003 RMK A01 T03250106  RH  027%=      5-min Rain = 0
KANS 152315Z 17005KT 33/10 A3002 RMK A01 T03280103  RH  026%=      5-min Rain = 0
KANS 152320Z 17003KT 33/10 A3002 RMK A01 T03290101  RH  025%=      5-min Rain = 0
KANS 152325Z 15001KT 33/09 A3002 RMK A01 T03310088  RH  023%=      5-min Rain = 0
KANS 152330Z 12002KT 34/10 A3002 RMK A01 T03350095  RH  023%=      5-min Rain = 0
KANS 152335Z 12002KT 33/09 A3002 RMK A01 T03330091  RH  023%=      5-min Rain = 0
KANS 152340Z 16002KT 33/09 A3002 RMK A01 T03330088  RH  022%=      5-min Rain = 0
KANS 152345Z 14001KT 33/09 A3002 RMK A01 T03320089  RH  023%=      5-min Rain = 0
KANS 152350Z 17001KT 34/09 A3002 RMK A01 T03360089  RH  022%=      5-min Rain = 0
KANS 152355Z 14001KT 34/08 A3002 RMK A01 T03380084  RH  021%=      5-min Rain = 0
KANS 160000Z 08002KT 34/09 A3002 RMK A01 T03360086  RH  022%=      5-min Rain = 0
KANS 160005Z 08003KT 33/09 A3002 RMK A01 T03330092  RH  023%=      5-min Rain = 0
KANS 160010Z 09003KT 33/10 A3002 RMK A01 T03320096  RH  024%=      5-min Rain = 0
KANS 160015Z 10004KT 33/10 A3002 RMK A01 T03310095  RH  024%=      5-min Rain = 0
KANS 160020Z 09004KT 33/10 A3002 RMK A01 T03300104  RH  025%=      5-min Rain = 0
KANS 160025Z 10004KT 33/11 A3002 RMK A01 T03270106  RH  026%=      5-min Rain = 0
KANS 160030Z 10004KT 32/11 A3002 RMK A01 T03230105  RH  027%=      5-min Rain = 0
KANS 160035Z 09003KT 32/11 A3002 RMK A01 T03200109  RH  028%=      5-min Rain = 0
KANS 160040Z 09003KT 32/11 A3002 RMK A01 T03190111  RH  028%=      5-min Rain = 0
KANS 160045Z 10003KT 32/11 A3002 RMK A01 T03160110  RH  029%=      5-min Rain = 0
KANS 160050Z 11003KT 31/12 A3002 RMK A01 T03130118  RH  031%=      5-min Rain = 0
KANS 160055Z 11003KT 31/13 A3002 RMK A01 T03120125  RH  033%=      5-min Rain = 0
KANS 160100Z 11003KT 31/13 A3001 RMK A01 T03090133  RH  035%=      5-min Rain = 0
KANS 160105Z 11004KT 31/14 A3001 RMK A01 T03050137  RH  037%=      5-min Rain = 0
KANS 160110Z 11004KT 30/14 A3001 RMK A01 T03030137  RH  037%=      5-min Rain = 0
KANS 160115Z 10004KT 30/13 A3001 RMK A01 T03020127  RH  035%=      5-min Rain = 0
KANS 160120Z 11003KT 30/13 A3001 RMK A01 T03010127  RH  035%=      5-min Rain = 0
KANS 160125Z 12003KT 30/13 A3001 RMK A01 T02990132  RH  037%=      5-min Rain = 0
KANS 160130Z 13003KT 30/14 A3001 RMK A01 T02970139  RH  039%=      5-min Rain = 0
KANS 160135Z 14003KT 29/15 A3001 RMK A01 T02930145  RH  041%=      5-min Rain = 0
KANS 160140Z 16003KT 29/16 A3001 RMK A01 T02880156  RH  046%=      5-min Rain = 0
KANS 160145Z 14003KT 28/16 A3001 RMK A01 T02830162  RH  049%=      5-min Rain = 0
KANS 160150Z 12003KT 28/14 A3002 RMK A01 T02820142  RH  043%=      5-min Rain = 0
KANS 160155Z 12004KT 28/14 A3002 RMK A01 T02820144  RH  044%=      5-min Rain = 0
KANS 160200Z 13003KT 28/14 A3002 RMK A01 T02820141  RH  043%=      5-min Rain = 0
KANS 160205Z 13003KT 28/14 A3002 RMK A01 T02820142  RH  043%=      5-min Rain = 0
KANS 160210Z 14003KT 28/15 A3002 RMK A01 T02800150  RH  046%=      5-min Rain = 0
KANS 160215Z 13004KT 28/15 A3002 RMK A01 T02780146  RH  045%=      5-min Rain = 0
KANS 160220Z 13004KT 28/15 A3002 RMK A01 T02770146  RH  046%=      5-min Rain = 0
KANS 160225Z 13004KT 28/15 A3002 RMK A01 T02750149  RH  047%=      5-min Rain = 0
KANS 160230Z 12003KT 27/15 A3003 RMK A01 T02740154  RH  049%=      5-min Rain = 0
KANS 160235Z 12003KT 27/16 A3003 RMK A01 T02730157  RH  050%=      5-min Rain = 0
KANS 160240Z 13004KT 27/17 A3003 RMK A01 T02720171  RH  055%=      5-min Rain = 0
KANS 160245Z 14004KT 27/17 A3003 RMK A01 T02690165  RH  054%=      5-min Rain = 0
KANS 160250Z 14005KT 27/17 A3004 RMK A01 T02660167  RH  056%=      5-min Rain = 0
KANS 160255Z 14005KT 26/16 A3004 RMK A01 T02640155  RH  052%=      5-min Rain = 0
KANS 160300Z 13006KT 26/16 A3004 RMK A01 T02640158  RH  053%=      5-min Rain = 0
KANS 160305Z 13005KT 27/15 A3004 RMK A01 T02660146  RH  049%=      5-min Rain = 0
KANS 160310Z 14005KT 27/14 A3004 RMK A01 T02680140  RH  046%=      5-min Rain = 0
KANS 160315Z 13004KT 27/15 A3005 RMK A01 T02670146  RH  049%=      5-min Rain = 0
KANS 160320Z 14004KT 26/15 A3005 RMK A01 T02640151  RH  051%=      5-min Rain = 0
KANS 160325Z 14005KT 26/15 A3005 RMK A01 T02620153  RH  052%=      5-min Rain = 0
KANS 160330Z 14005KT 26/15 A3005 RMK A01 T02620152  RH  052%=      5-min Rain = 0
KANS 160335Z 13005KT 26/16 A3005 RMK A01 T02630155  RH  053%=      5-min Rain = 0
KANS 160340Z 14005KT 26/16 A3005 RMK A01 T02610158  RH  054%=      5-min Rain = 0
KANS 160345Z 15005KT 26/16 A3005 RMK A01 T02580163  RH  057%=      5-min Rain = 0
KANS 160350Z 13005KT 26/16 A3005 RMK A01 T02560162  RH  057%=      5-min Rain = 0
KANS 160355Z 14006KT 26/16 A3005 RMK A01 T02560156  RH  055%=      5-min Rain = 0
KANS 160400Z 14007KT 26/15 A3005 RMK A01 T02600151  RH  052%=      5-min Rain = 0
KANS 160405Z 15007KT 26/15 A3005 RMK A01 T02610149  RH  051%=      5-min Rain = 0
KANS 160410Z 14007KT 26/15 A3005 RMK A01 T02610148  RH  051%=      5-min Rain = 0
KANS 160415Z 15005KT 26/15 A3005 RMK A01 T02610148  RH  051%=      5-min Rain = 0
KANS 160420Z 16006KT 26/15 A3006 RMK A01 T02600151  RH  052%=      5-min Rain = 0
KANS 160425Z 16006KT 26/15 A3005 RMK A01 T02560152  RH  054%=      5-min Rain = 0
KANS 160430Z 16006KT 26/15 A3005 RMK A01 T02550149  RH  053%=      5-min Rain = 0
KANS 160435Z 15006KT 26/15 A3006 RMK A01 T02550148  RH  053%=      5-min Rain = 0
KANS 160440Z 16006KT 26/15 A3006 RMK A01 T02550147  RH  052%=      5-min Rain = 0
KANS 160445Z 15005KT 25/15 A3006 RMK A01 T02540148  RH  053%=      5-min Rain = 0
KANS 160450Z 16005KT 25/15 A3006 RMK A01 T02530148  RH  054%=      5-min Rain = 0
KANS 160455Z 17005KT 25/15 A3006 RMK A01 T02520147  RH  053%=      5-min Rain = 0

Page generated in 0.0151 seconds.